Time;durP1;ratioP1;P1;durP2;ratioP2;P2;SDS_P1;SDS_P2;PMS_P1;PMS_P2;Temp;Humidity;BMP_temperature;BMP_pressure;BME280_temperature;BME280_humidity;BME280_pressure;Samples;Min_cycle;Max_cycle;Signal;HPM_P1;HPM_P2
2021/12/20 00:01:09;;;;;;;2.17;1.50;;;;;;;1.78;100.00;96889.28;4979949;28;20478;-73
2021/12/20 00:03:36;;;;;;;2.23;2.00;;;;;;;1.74;100.00;96870.78;5071435;28;20427;-73
2021/12/20 00:06:03;;;;;;;1.97;1.87;;;;;;;1.65;100.00;96858.47;5076814;28;20431;-73
2021/12/20 00:08:31;;;;;;;2.30;1.77;;;;;;;1.70;100.00;96898.38;5076743;28;20439;-73
2021/12/20 00:10:57;;;;;;;2.60;1.90;;;;;;;1.69;100.00;96893.41;5094630;28;20496;-73
2021/12/20 00:13:24;;;;;;;1.90;1.53;;;;;;;1.51;100.00;96871.19;5093432;28;20439;-73
2021/12/20 00:15:51;;;;;;;1.73;1.63;;;;;;;1.76;100.00;96896.59;5093335;28;20439;-73
2021/12/20 00:18:17;;;;;;;2.23;1.50;;;;;;;1.78;100.00;96904.94;5092793;28;20505;-73
2021/12/20 00:20:44;;;;;;;2.87;2.40;;;;;;;1.69;100.00;96888.97;5093048;28;20467;-73
2021/12/20 00:23:11;;;;;;;2.57;2.23;;;;;;;1.35;100.00;96859.16;5093070;28;20427;-73
2021/12/20 00:25:38;;;;;;;2.47;2.27;;;;;;;1.51;100.00;96873.81;5093007;28;20942;-73
2021/12/20 00:28:04;;;;;;;2.07;1.93;;;;;;;1.68;100.00;96871.78;5076120;28;20455;-73
2021/12/20 00:30:33;;;;;;;2.03;1.93;;;;;;;1.49;100.00;96870.69;5094163;28;20432;-73
2021/12/20 00:32:59;;;;;;;3.47;2.70;;;;;;;1.66;100.00;96886.13;5092174;28;20866;-73
2021/12/20 00:35:26;;;;;;;1.90;1.70;;;;;;;2.02;100.00;96895.63;5075928;28;20439;-73
2021/12/20 00:40:38;;;;;;;2.40;1.67;;;;;;;2.07;100.00;96890.41;5092548;28;20434;-73
2021/12/20 00:43:06;;;;;;;1.50;1.40;;;;;;;1.96;100.00;96896.63;5092494;28;20852;-73
2021/12/20 00:45:35;;;;;;;2.43;2.23;;;;;;;1.70;100.00;96894.97;5092501;28;20469;-73
2021/12/20 00:48:04;;;;;;;4.30;2.40;;;;;;;1.62;100.00;96885.84;5092446;28;20489;-73
2021/12/20 00:50:37;;;;;;;2.23;1.80;;;;;;;1.58;100.00;96884.75;5092535;28;20415;-73
2021/12/20 00:53:04;;;;;;;2.30;1.73;;;;;;;1.47;100.00;96870.94;5093650;28;20463;-73
2021/12/20 00:55:31;;;;;;;3.23;2.13;;;;;;;1.57;100.00;96885.81;5092311;28;20443;-73
2021/12/20 00:57:59;;;;;;;4.93;2.30;;;;;;;1.60;100.00;96882.69;5093348;28;20825;-73
2021/12/20 01:00:40;;;;;;;2.10;1.90;;;;;;;1.70;100.00;96887.94;5075269;28;20443;-73
2021/12/20 01:03:08;;;;;;;3.03;2.73;;;;;;;1.54;100.00;96862.88;5092109;28;20522;-73
2021/12/20 01:05:38;;;;;;;4.43;2.40;;;;;;;1.62;100.00;96875.41;5091996;28;20906;-74
2021/12/20 01:08:07;;;;;;;3.57;2.20;;;;;;;1.62;100.00;96875.41;5092093;28;20473;-73
2021/12/20 01:10:36;;;;;;;3.63;3.13;;;;;;;1.51;100.00;96862.59;5075321;28;21383;-73
2021/12/20 01:13:04;;;;;;;4.33;3.27;;;;;;;1.58;100.00;96889.19;5091722;28;20463;-73
2021/12/20 01:15:40;;;;;;;4.13;3.57;;;;;;;1.50;100.00;96864.44;5091856;28;20443;-73
2021/12/20 01:18:07;;;;;;;4.23;3.93;;;;;;;1.64;100.00;96894.19;5095012;28;20451;-73
2021/12/20 01:20:35;;;;;;;3.57;2.40;;;;;;;1.70;100.00;96898.38;5103851;28;20465;-72
2021/12/20 01:23:03;;;;;;;3.90;3.10;;;;;;;1.69;100.00;96891.59;5103896;28;20431;-72
2021/12/20 01:25:31;;;;;;;3.23;2.77;;;;;;;1.77;100.00;96893.72;5104311;28;20431;-73
2021/12/20 01:27:57;;;;;;;3.10;2.83;;;;;;;1.66;100.00;96880.91;5075470;28;20806;-73
2021/12/20 01:30:27;;;;;;;3.17;2.87;;;;;;;1.56;100.00;96878.25;5091612;28;20432;-73
2021/12/20 01:32:54;;;;;;;4.50;2.27;;;;;;;1.61;100.00;96889.50;5091527;28;20467;-73
2021/12/20 01:35:23;;;;;;;3.17;2.87;;;;;;;1.51;100.00;96889.44;5092898;28;20935;-73
2021/12/20 01:37:51;;;;;;;3.20;2.90;;;;;;;1.36;100.00;96852.91;5091521;28;20516;-73
2021/12/20 01:40:18;;;;;;;3.80;3.13;;;;;;;1.54;100.00;96888.94;5074577;28;20472;-73
2021/12/20 01:42:46;;;;;;;3.60;3.30;;;;;;;1.20;100.00;96836.41;5092546;28;20435;-73
2021/12/20 01:45:18;;;;;;;6.37;3.70;;;;;;;1.61;100.00;96896.53;5073711;28;20445;-73
2021/12/20 01:47:49;;;;;;;4.33;3.83;;;;;;;1.61;100.00;96905.13;5091236;28;20526;-73
2021/12/20 01:50:41;;;;;;;4.40;3.73;;;;;;;1.66;100.00;96897.31;5091264;28;20447;-73
2021/12/20 01:53:10;;;;;;;3.87;3.47;;;;;;;1.76;100.00;96897.38;5092332;28;20459;-73
2021/12/20 01:55:37;;;;;;;4.60;3.50;;;;;;;1.57;100.00;96864.97;5090912;28;20431;-73
2021/12/20 01:58:04;;;;;;;4.60;4.10;;;;;;;1.74;100.00;96902.06;5090923;28;20532;-73
2021/12/20 02:00:32;;;;;;;5.80;3.90;;;;;;;1.83;100.00;96906.75;5090803;28;20441;-73
2021/12/20 02:03:01;;;;;;;4.33;3.77;;;;;;;1.88;100.00;96886.72;5090954;28;20431;-73
2021/12/20 02:08:18;;;;;;;3.90;3.60;;;;;;;1.82;100.00;96907.78;5092099;28;20496;-73
2021/12/20 02:10:47;;;;;;;4.77;3.63;;;;;;;1.76;100.00;96907.78;5090782;28;20419;-73
2021/12/20 02:13:15;;;;;;;6.50;3.77;;;;;;;1.81;100.00;96908.84;5090527;28;20467;-73
2021/12/20 02:15:42;;;;;;;5.30;3.50;;;;;;;1.61;100.00;96886.88;5073804;28;20522;-73
2021/12/20 02:18:09;;;;;;;3.43;3.13;;;;;;;1.76;100.00;96920.81;5090580;28;20524;-73
2021/12/20 02:20:37;;;;;;;4.63;3.13;;;;;;;1.90;100.00;96913.31;5073799;28;20865;-73
2021/12/20 02:23:06;;;;;;;4.20;3.40;;;;;;;1.85;100.00;96915.09;5091958;28;20974;-72
2021/12/20 02:25:33;;;;;;;3.97;3.37;;;;;;;1.86;100.00;96912.22;5090521;28;20867;-72
2021/12/20 02:28:08;;;;;;;5.07;3.17;;;;;;;1.82;100.00;96918.22;5091807;28;20471;-73
2021/12/20 02:38:48;;;;;;;8.03;3.10;;;;;;;1.05;100.00;96933.44;5090414;28;20435;-73
2021/12/20 02:41:30;;;;;;;6.77;3.90;;;;;;;1.05;100.00;96940.47;5090244;28;20435;-73
2021/12/20 02:44:03;;;;;;;5.20;3.00;;;;;;;0.83;100.00;96937.97;5091513;28;20416;-73
2021/12/20 02:49:23;;;;;;;6.63;3.20;;;;;;;0.84;100.00;96929.91;5091436;28;20484;-73
2021/12/20 02:51:52;;;;;;;4.47;2.60;;;;;;;0.82;100.00;96920.78;5090225;28;20498;-73
2021/12/20 02:54:21;;;;;;;5.53;2.40;;;;;;;0.80;100.00;96930.63;5091339;28;20518;-73
2021/12/20 02:56:48;;;;;;;3.60;2.77;;;;;;;0.88;100.00;96920.56;5089996;28;20487;-73
2021/12/20 02:59:16;;;;;;;7.20;2.43;;;;;;;1.02;100.00;96928.72;5091162;28;20443;-73
2021/12/20 03:01:46;;;;;;;4.43;2.00;;;;;;;1.09;100.00;96928.53;5090063;28;20427;-73
2021/12/20 03:04:13;;;;;;;2.90;2.20;;;;;;;1.08;100.00;96919.94;5091376;28;20621;-73
2021/12/20 03:06:49;;;;;;;6.07;2.70;;;;;;;1.12;100.00;96923.59;5073162;28;20459;-73
2021/12/20 03:09:20;;;;;;;2.10;1.90;;;;;;;1.05;100.00;96914.44;5089968;28;20471;-73
2021/12/20 03:11:55;;;;;;;2.63;2.13;;;;;;;1.12;100.00;96931.41;5089775;28;20481;-73
2021/12/20 03:14:28;;;;;;;2.67;2.37;;;;;;;1.01;100.00;96914.16;5089940;28;20754;-73
2021/12/20 03:16:56;;;;;;;2.03;1.93;;;;;;;1.16;100.00;96932.47;5073016;28;20498;-73
2021/12/20 03:19:22;;;;;;;4.30;2.00;;;;;;;1.11;100.00;96922.03;5090163;28;20934;-73
2021/12/20 03:21:50;;;;;;;8.83;3.13;;;;;;;1.41;100.00;96936.28;5091071;28;20474;-73
2021/12/20 03:24:18;;;;;;;5.30;2.40;;;;;;;1.21;100.00;96936.94;5089747;28;20493;-73
2021/12/20 03:26:45;;;;;;;8.97;2.10;;;;;;;1.34;100.00;96951.34;5089776;28;21340;-73
2021/12/20 03:29:12;;;;;;;2.13;1.80;;;;;;;1.17;100.00;96954.09;5089624;28;20485;-73
2021/12/20 03:31:39;;;;;;;2.50;2.30;;;;;;;1.13;100.00;96961.63;5089636;28;20971;-73
2021/12/20 03:34:06;;;;;;;3.77;2.33;;;;;;;0.92;100.00;96935.69;5090924;28;20872;-73
2021/12/20 03:36:33;;;;;;;3.50;2.30;;;;;;;1.06;100.00;96966.25;5073015;28;20491;-73
2021/12/20 03:39:00;;;;;;;3.10;2.80;;;;;;;0.96;100.00;96966.19;5089556;28;20434;-73
2021/12/20 03:41:28;;;;;;;5.50;2.43;;;;;;;0.93;100.00;96968.47;5090896;28;20534;-73
2021/12/20 03:43:55;;;;;;;2.60;2.27;;;;;;;0.83;100.00;96951.78;5091037;28;20423;-73
2021/12/20 03:46:22;;;;;;;2.37;2.13;;;;;;;0.85;100.00;96967.91;5089679;28;20463;-73
2021/12/20 03:48:49;;;;;;;6.20;3.00;;;;;;;0.75;100.00;96952.22;5090955;28;20525;-73
2021/12/20 03:51:16;;;;;;;4.10;2.60;;;;;;;0.80;100.00;96972.28;5089468;28;20431;-73
2021/12/20 03:53:42;;;;;;;3.63;2.23;;;;;;;0.74;100.00;96958.44;5090767;28;20494;-73
2021/12/20 03:56:09;;;;;;;5.40;2.60;;;;;;;0.75;100.00;96980.06;5089378;28;20463;-73
2021/12/20 03:58:36;;;;;;;3.73;2.10;;;;;;;0.54;100.00;96951.25;5072542;28;21008;-73
2021/12/20 04:01:09;;;;;;;6.87;2.60;;;;;;;0.77;100.00;96949.34;5089521;28;20427;-72
2021/12/20 04:03:37;;;;;;;5.00;2.93;;;;;;;0.72;100.00;96967.53;5089443;28;20427;-73
2021/12/20 04:06:07;;;;;;;5.30;2.23;;;;;;;0.83;100.00;96974.41;5090658;28;20464;-73
2021/12/20 04:08:34;;;;;;;3.53;2.40;;;;;;;0.86;100.00;96969.50;5075898;28;20468;-73
2021/12/20 04:11:01;;;;;;;6.97;2.83;;;;;;;0.86;100.00;96979.13;5076352;28;20435;-73
2021/12/20 04:13:29;;;;;;;6.60;2.67;;;;;;;0.97;100.00;96988.59;5092804;28;20502;-73
2021/12/20 04:15:55;;;;;;;5.13;2.47;;;;;;;0.82;100.00;96980.66;5093039;28;20431;-73
2021/12/20 04:18:23;;;;;;;4.00;2.40;;;;;;;0.72;100.00;96994.34;5076350;28;20467;-73
2021/12/20 04:20:51;;;;;;;5.73;2.50;;;;;;;0.52;100.00;96971.50;5092891;28;20508;-73
2021/12/20 04:23:18;;;;;;;10.87;2.63;;;;;;;0.51;100.00;96987.38;5094126;28;20453;-73
2021/12/20 04:25:45;;;;;;;6.83;2.63;;;;;;;0.49;100.00;96990.22;5092696;28;20443;-73
2021/12/20 04:28:12;;;;;;;7.53;2.20;;;;;;;0.15;100.00;96957.63;5092584;28;21012;-73
2021/12/20 04:30:38;;;;;;;2.70;1.77;;;;;;;0.70;100.00;96991.22;5094074;28;20523;-73
2021/12/20 04:33:05;;;;;;;20.57;11.50;;;;;;;0.70;100.00;96969.63;5092457;28;20494;-73
2021/12/20 04:35:32;;;;;;;39.10;22.93;;;;;;;0.83;100.00;96997.84;5092564;28;20459;-73
2021/12/20 04:38:01;;;;;;;52.97;31.03;;;;;;;0.58;100.00;96988.75;5092348;28;20982;-73
2021/12/20 04:40:27;;;;;;;15.90;7.83;;;;;;;0.02;100.00;96979.56;5092391;28;20471;-73
2021/12/20 04:42:56;;;;;;;10.27;4.73;;;;;;;-0.11;100.00;96992.94;5092469;28;20419;-73
2021/12/20 04:45:25;;;;;;;5.20;2.70;;;;;;;-0.37;100.00;96968.44;5092270;28;20828;-73
2021/12/20 04:47:52;;;;;;;2.60;2.40;;;;;;;-0.36;100.00;96996.78;5092356;28;20856;-73
2021/12/20 04:50:21;;;;;;;8.93;2.87;;;;;;;-0.44;100.00;96971.19;5092203;28;20439;-73
2021/12/20 04:52:49;;;;;;;8.00;3.33;;;;;;;-0.38;100.00;96993.63;5093556;28;20459;-73
2021/12/20 04:55:16;;;;;;;11.10;3.87;;;;;;;-0.41;100.00;96981.09;5093537;28;20463;-73
2021/12/20 04:57:44;;;;;;;2.17;1.93;;;;;;;-0.28;100.00;96990.34;5091986;28;20551;-73
2021/12/20 05:00:15;;;;;;;6.07;2.20;;;;;;;-0.38;100.00;96967.66;5093310;28;20512;-72
2021/12/20 05:02:42;;;;;;;3.53;2.43;;;;;;;-0.38;100.00;96979.84;5093537;28;20416;-72
2021/12/20 05:05:09;;;;;;;7.00;2.77;;;;;;;-0.45;100.00;96971.44;5075213;28;20942;-72
2021/12/20 05:07:38;;;;;;;4.07;3.60;;;;;;;-0.27;100.00;97004.91;5093180;28;20490;-72
2021/12/20 05:10:13;;;;;;;3.93;2.57;;;;;;;-0.46;100.00;97011.41;5075103;28;20559;-73
2021/12/20 05:12:40;;;;;;;3.60;2.33;;;;;;;-0.47;100.00;97002.06;5075256;28;20486;-73
2021/12/20 05:15:08;;;;;;;6.60;3.00;;;;;;;-0.49;100.00;96998.91;5091835;28;20933;-72
2021/12/20 05:17:36;;;;;;;2.90;2.60;;;;;;;-0.61;100.00;97009.41;5091541;28;21055;-72
2021/12/20 05:20:04;;;;;;;3.57;2.20;;;;;;;-0.62;100.00;97015.63;5074977;28;20443;-72
2021/12/20 05:22:31;;;;;;;11.83;4.33;;;;;;;-0.72;100.00;97013.66;5091976;28;20427;-72
2021/12/20 05:24:58;;;;;;;9.40;4.53;;;;;;;-0.97;100.00;96990.69;5091762;28;20428;-72
2021/12/20 05:27:25;;;;;;;9.00;5.13;;;;;;;-0.85;100.00;97021.75;5091458;28;20455;-72
2021/12/20 05:29:56;;;;;;;15.60;5.10;;;;;;;-1.14;100.00;97002.88;5091484;28;20925;-72
2021/12/20 05:32:22;;;;;;;5.90;5.00;;;;;;;-0.96;100.00;97033.78;5074619;28;20526;-72
2021/12/20 05:34:49;;;;;;;6.97;5.93;;;;;;;-1.11;100.00;97041.31;5074740;28;20871;-72
2021/12/20 05:37:16;;;;;;;7.00;4.63;;;;;;;-1.43;100.00;96991.75;5074590;28;20503;-72
2021/12/20 05:39:44;;;;;;;8.77;6.03;;;;;;;-1.05;100.00;97037.00;5091442;28;20439;-72
2021/12/20 05:42:12;;;;;;;5.40;4.70;;;;;;;-0.98;100.00;97033.22;5092126;28;20981;-72
2021/12/20 05:44:39;;;;;;;11.20;5.33;;;;;;;-0.82;100.00;97018.66;5093295;28;20800;-72
2021/12/20 05:47:06;;;;;;;4.60;4.13;;;;;;;-0.92;100.00;97027.09;5092652;28;20512;-72
2021/12/20 05:49:33;;;;;;;6.23;4.23;;;;;;;-0.93;100.00;97053.28;5093055;28;20448;-72
2021/12/20 05:52:03;;;;;;;5.53;4.20;;;;;;;-1.04;100.00;97041.97;5092457;28;20857;-72
2021/12/20 05:54:30;;;;;;;6.90;4.10;;;;;;;-1.09;100.00;97046.25;5092381;28;20455;-72
2021/12/20 05:56:58;;;;;;;9.73;5.17;;;;;;;-1.02;100.00;97052.09;5074243;28;20513;-71
2021/12/20 05:59:25;;;;;;;7.53;4.50;;;;;;;-1.04;100.00;97049.75;5091253;28;20458;-72
2021/12/20 06:01:51;;;;;;;7.30;6.20;;;;;;;-1.22;100.00;97026.56;5090934;28;20945;-72
2021/12/20 06:04:19;;;;;;;4.07;3.67;;;;;;;-1.07;100.00;97058.00;5074000;28;20999;-72
2021/12/20 06:06:45;;;;;;;5.90;3.80;;;;;;;-1.23;100.00;97032.78;5090613;28;20506;-72
2021/12/20 06:09:12;;;;;;;3.20;2.90;;;;;;;-0.96;100.00;97061.53;5092184;28;20431;-71
2021/12/20 06:11:40;;;;;;;4.50;3.37;;;;;;;-1.05;100.00;97045.56;5091961;28;20432;-71
2021/12/20 06:14:07;;;;;;;5.90;3.23;;;;;;;-0.90;100.00;97063.19;5090606;28;20455;-71
2021/12/20 06:16:34;;;;;;;8.13;5.00;;;;;;;-1.13;100.00;97055.53;5092664;28;20459;-71
2021/12/20 06:19:02;;;;;;;4.27;3.23;;;;;;;-1.20;100.00;97068.66;5093346;28;20431;-71
2021/12/20 06:21:29;;;;;;;3.13;2.50;;;;;;;-1.45;100.00;97050.81;5091260;28;20438;-71
2021/12/20 06:23:56;;;;;;;9.50;3.57;;;;;;;-1.54;100.00;97067.75;5092573;28;20492;-72
2021/12/20 06:26:23;;;;;;;5.83;3.30;;;;;;;-1.56;100.00;97064.63;5093444;28;20454;-71
2021/12/20 06:28:51;;;;;;;6.27;3.30;;;;;;;-1.50;100.00;97058.50;5092105;28;20435;-71
2021/12/20 06:31:21;;;;;;;8.47;3.30;;;;;;;-1.58;100.00;97040.72;5090000;28;20519;-71
2021/12/20 06:33:48;;;;;;;7.50;3.20;;;;;;;-1.53;100.00;97067.53;5090328;28;21159;-71
2021/12/20 06:36:15;;;;;;;8.97;3.47;;;;;;;-1.66;100.00;97054.03;5091633;28;20845;-71
2021/12/20 06:38:45;;;;;;;4.93;3.03;;;;;;;-1.43;100.00;97069.53;5090398;28;20482;-70
2021/12/20 06:41:12;;;;;;;4.10;2.70;;;;;;;-1.46;100.00;97067.41;5091716;28;20539;-71
2021/12/20 06:43:40;;;;;;;5.93;2.60;;;;;;;-1.44;100.00;97057.59;5090427;28;20481;-71
2021/12/20 06:46:07;;;;;;;5.17;3.70;;;;;;;-1.35;100.00;97063.97;5090571;28;20435;-70
2021/12/20 06:48:34;;;;;;;7.73;4.20;;;;;;;-1.25;100.00;97073.75;5090201;28;20435;-71
2021/12/20 06:51:01;;;;;;;5.20;3.03;;;;;;;-1.40;100.00;97050.13;5090085;28;20439;-70
2021/12/20 06:53:28;;;;;;;10.53;3.43;;;;;;;-1.19;100.00;97091.00;5089956;28;20459;-70
2021/12/20 06:55:55;;;;;;;14.90;4.73;;;;;;;-1.59;100.00;97052.13;5089976;28;20435;-70
2021/12/20 06:58:23;;;;;;;9.07;5.13;;;;;;;-1.29;100.00;97065.66;5091582;28;20494;-70
2021/12/20 07:00:51;;;;;;;8.30;4.13;;;;;;;-1.22;100.00;97087.03;5090434;28;20443;-70
2021/12/20 07:03:19;;;;;;;6.20;3.50;;;;;;;-1.22;100.00;97087.03;5090303;28;20442;-70
2021/12/20 07:05:47;;;;;;;9.67;3.67;;;;;;;-1.38;100.00;97080.00;5090447;28;20447;-70
2021/12/20 07:08:14;;;;;;;4.10;3.50;;;;;;;-1.16;100.00;97100.09;5089973;28;21016;-69
2021/12/20 07:10:41;;;;;;;4.93;2.70;;;;;;;-1.11;100.00;97092.41;5089957;28;20474;-69
2021/12/20 07:13:09;;;;;;;6.13;3.73;;;;;;;-0.99;100.00;97099.13;5091107;28;20498;-72
2021/12/20 07:15:36;;;;;;;5.70;4.20;;;;;;;-1.18;100.00;97092.56;5089801;28;20439;-70
2021/12/20 07:18:04;;;;;;;4.10;3.20;;;;;;;-0.57;100.00;97113.56;5073116;28;20473;-69
2021/12/20 07:20:31;;;;;;;8.17;3.60;;;;;;;-0.85;100.00;97081.44;5090013;28;20442;-69
2021/12/20 07:22:58;;;;;;;11.40;5.20;;;;;;;-1.05;100.00;97094.09;5091155;28;20532;-71
2021/12/20 07:25:25;;;;;;;8.17;4.10;;;;;;;-1.17;100.00;97116.69;5089877;28;20466;-70
2021/12/20 07:27:52;;;;;;;7.70;4.80;;;;;;;-1.26;100.00;97101.47;5073008;28;20513;-70
2021/12/20 07:30:20;;;;;;;7.27;4.83;;;;;;;-1.22;100.00;97105.19;5089843;28;20453;-69
2021/12/20 07:32:48;;;;;;;7.10;4.90;;;;;;;-1.30;100.00;97095.19;5089771;28;20985;-70
2021/12/20 07:35:15;;;;;;;9.40;5.00;;;;;;;-1.25;100.00;97105.66;5089692;28;20463;-70
2021/12/20 07:37:43;;;;;;;10.40;3.90;;;;;;;-1.26;100.00;97116.25;5072880;28;20589;-70
2021/12/20 07:40:10;;;;;;;11.40;4.17;;;;;;;-1.27;100.00;97101.72;5090987;28;20938;-70
2021/12/20 07:42:37;;;;;;;9.90;4.97;;;;;;;-1.28;100.00;97100.16;5091556;28;20442;-70
2021/12/20 07:45:07;;;;;;;5.73;3.73;;;;;;;-1.34;100.00;97114.03;5076808;28;20966;-69
2021/12/20 07:47:47;;;;;;;13.77;5.70;;;;;;;-1.39;100.00;97111.34;5094746;28;20439;-71
2021/12/20 07:50:15;;;;;;;4.57;3.73;;;;;;;-1.41;100.00;97113.38;5093391;28;20427;-71
2021/12/20 07:52:42;;;;;;;13.50;5.73;;;;;;;-1.63;100.00;97090.66;5094741;28;20461;-69
2021/12/20 07:55:09;;;;;;;8.20;4.67;;;;;;;-1.32;100.00;97114.59;5093469;28;20505;-69
2021/12/20 07:57:37;;;;;;;11.90;4.90;;;;;;;-1.34;100.00;97108.84;5093293;28;20487;-69
2021/12/20 08:00:06;;;;;;;13.20;7.90;;;;;;;-1.35;100.00;97128.78;5094614;28;20475;-69
2021/12/20 08:02:38;;;;;;;18.30;7.93;;;;;;;-1.34;100.00;97134.78;5093456;28;20446;-69
2021/12/20 08:05:06;;;;;;;16.57;9.17;;;;;;;-1.41;100.00;97136.72;5094475;28;20423;-69
2021/12/20 08:07:33;;;;;;;14.47;10.37;;;;;;;-1.62;100.00;97114.78;5094373;28;20442;-69
2021/12/20 08:09:59;;;;;;;14.30;7.03;;;;;;;-1.56;100.00;97125.03;5093064;28;20494;-72
2021/12/20 08:12:26;;;;;;;20.97;8.77;;;;;;;-1.41;100.00;97134.91;5076273;28;20439;-69
2021/12/20 08:14:53;;;;;;;18.73;10.13;;;;;;;-1.31;100.00;97132.53;5092927;28;20524;-69
2021/12/20 08:17:20;;;;;;;15.13;9.20;;;;;;;-1.38;100.00;97118.09;5092899;28;20532;-69
2021/12/20 08:19:47;;;;;;;17.60;9.33;;;;;;;-1.07;100.00;97141.03;5093018;28;20465;-71
2021/12/20 08:22:13;;;;;;;17.20;10.20;;;;;;;-1.09;100.00;97134.47;5092903;28;20496;-68
2021/12/20 08:24:40;;;;;;;15.70;8.90;;;;;;;-0.80;100.00;97146.44;5092874;28;20439;-68
2021/12/20 08:27:07;;;;;;;18.43;10.20;;;;;;;-0.95;100.00;97144.34;5092644;28;20532;-68
2021/12/20 08:29:33;;;;;;;11.83;7.93;;;;;;;-0.92;100.00;97145.69;5094060;28;20470;-69
2021/12/20 08:32:02;;;;;;;9.90;6.50;;;;;;;-0.91;100.00;97150.66;5092751;28;20435;-69
2021/12/20 08:34:31;;;;;;;13.23;7.23;;;;;;;-0.83;100.00;97146.88;5093833;28;20595;-69
2021/12/20 08:36:59;;;;;;;17.43;8.43;;;;;;;-0.88;100.00;97154.59;5093868;28;20443;-69
2021/12/20 08:39:25;;;;;;;10.57;7.20;;;;;;;-0.95;100.00;97151.34;5093873;28;20454;-69
2021/12/20 08:41:52;;;;;;;6.60;3.93;;;;;;;-0.93;100.00;97159.69;5092576;28;20492;-69
2021/12/20 08:44:19;;;;;;;10.90;5.30;;;;;;;-0.86;100.00;97159.53;5092405;28;20431;-70
2021/12/20 08:46:46;;;;;;;9.10;4.90;;;;;;;-0.88;100.00;97164.97;5092238;28;20491;-69
2021/12/20 08:49:12;;;;;;;12.30;5.07;;;;;;;-0.87;100.00;97161.34;5092295;28;20488;-69
2021/12/20 08:51:39;;;;;;;10.50;4.80;;;;;;;-0.82;100.00;97160.66;5092270;28;20431;-69
2021/12/20 08:54:06;;;;;;;6.67;4.97;;;;;;;-0.97;100.00;97146.38;5093143;28;20531;-69
2021/12/20 08:56:33;;;;;;;9.63;4.30;;;;;;;-0.62;100.00;97167.00;5093390;28;20474;-70
2021/12/20 08:59:00;;;;;;;3.83;3.30;;;;;;;-0.83;100.00;97146.88;5091995;28;20953;-69
2021/12/20 09:01:27;;;;;;;6.93;3.97;;;;;;;-0.78;100.00;97149.59;5075271;28;20435;-69
2021/12/20 09:03:54;;;;;;;6.23;4.00;;;;;;;-0.64;100.00;97163.06;5093341;28;20422;-70
2021/12/20 09:06:24;;;;;;;5.23;3.40;;;;;;;-0.78;100.00;97152.19;5075193;28;20459;-69
2021/12/20 09:08:54;;;;;;;5.63;4.00;;;;;;;-0.66;100.00;97175.50;5092841;28;20942;-70
2021/12/20 09:11:22;;;;;;;7.07;3.80;;;;;;;-0.70;100.00;97148.41;5075768;28;20824;-70
2021/12/20 09:13:58;;;;;;;5.67;3.17;;;;;;;-0.62;100.00;97174.00;5091780;28;20451;-70
2021/12/20 09:16:26;;;;;;;9.17;3.40;;;;;;;-0.48;100.00;97177.88;5075128;28;20463;-70
2021/12/20 09:18:52;;;;;;;6.77;3.60;;;;;;;-0.57;100.00;97179.28;5091791;28;20443;-70
2021/12/20 09:21:19;;;;;;;9.57;3.17;;;;;;;-0.56;100.00;97183.44;5074914;28;20535;-70
2021/12/20 09:23:46;;;;;;;7.47;3.33;;;;;;;-0.51;100.00;97180.16;5093008;28;20431;-70
2021/12/20 09:26:18;;;;;;;26.63;17.67;;;;;;;-0.45;100.00;97187.78;5075335;28;20468;-70
2021/12/20 09:28:44;;;;;;;7.33;3.97;;;;;;;-0.46;100.00;97175.84;5091533;28;20435;-70
2021/12/20 09:31:11;;;;;;;4.83;2.63;;;;;;;-0.49;100.00;97184.09;5092928;28;20868;-70
2021/12/20 09:33:38;;;;;;;12.10;6.33;;;;;;;-0.44;100.00;97197.16;5091607;28;20936;-70
2021/12/20 09:36:06;;;;;;;5.40;2.43;;;;;;;-0.51;100.00;97191.34;5091557;28;20454;-70
2021/12/20 09:38:33;;;;;;;4.10;2.67;;;;;;;-0.68;100.00;97180.91;5091304;28;20478;-70
2021/12/20 09:43:37;;;;;;;10.80;4.70;;;;;;;-0.47;100.00;97186.47;5091312;28;20899;-70
2021/12/20 09:46:04;;;;;;;7.23;4.00;;;;;;;-0.57;100.00;97165.50;5092666;28;20488;-70
2021/12/20 09:48:31;;;;;;;7.90;3.60;;;;;;;-0.39;100.00;97199.06;5092660;28;20792;-70
2021/12/20 09:50:58;;;;;;;4.67;3.00;;;;;;;-0.37;100.00;97191.84;5074394;28;20493;-70
2021/12/20 09:53:24;;;;;;;4.43;2.40;;;;;;;-0.44;100.00;97175.59;5091073;28;20432;-70
2021/12/20 09:55:51;;;;;;;5.17;2.50;;;;;;;-0.44;100.00;97175.59;5090987;28;20471;-70
2021/12/20 09:58:25;;;;;;;2.37;1.90;;;;;;;-0.31;100.00;97199.47;5091593;28;20447;-70
2021/12/20 10:00:53;;;;;;;5.07;3.30;;;;;;;-0.24;100.00;97190.75;5096576;28;20461;-70
2021/12/20 10:03:23;;;;;;;3.63;1.80;;;;;;;-0.37;100.00;97184.03;5112906;28;20494;-70
2021/12/20 10:05:55;;;;;;;2.47;1.80;;;;;;;-0.30;100.00;97182.06;5111118;28;20412;-70
2021/12/20 10:08:31;;;;;;;7.93;3.13;;;;;;;-0.26;100.00;97192.78;5112142;28;20518;-70
2021/12/20 10:11:04;;;;;;;6.83;2.60;;;;;;;-0.17;100.00;97191.38;5092029;28;20938;-70
2021/12/20 10:13:36;;;;;;;4.33;2.33;;;;;;;-0.19;100.00;97188.22;5091136;28;20415;-70
2021/12/20 10:16:13;;;;;;;3.40;2.70;;;;;;;-0.27;100.00;97181.59;5107097;28;20439;-70
2021/12/20 10:18:41;;;;;;;6.53;2.30;;;;;;;-0.10;100.00;97192.00;5111502;28;20419;-70
2021/12/20 10:21:08;;;;;;;8.70;2.20;;;;;;;-0.23;100.00;97167.13;5080060;28;20454;-71
2021/12/20 10:23:49;;;;;;;2.07;1.63;;;;;;;-0.07;100.00;97199.31;5092075;28;20467;-70
2021/12/20 10:26:20;;;;;;;3.83;2.47;;;;;;;-0.08;100.00;97174.34;5090596;28;20416;-70
2021/12/20 10:28:51;;;;;;;11.73;1.87;;;;;;;-0.05;100.00;97195.47;5090419;28;20439;-70
2021/12/20 10:31:20;;;;;;;4.77;3.50;;;;;;;0.07;100.00;97179.00;5091731;28;20420;-70
2021/12/20 10:33:58;;;;;;;4.77;2.30;;;;;;;0.08;100.00;97183.16;5090387;28;20922;-70
2021/12/20 10:36:26;;;;;;;2.40;1.80;;;;;;;0.02;100.00;97178.94;5091738;28;20482;-70
2021/12/20 10:38:58;;;;;;;3.83;2.10;;;;;;;0.02;100.00;97163.34;5090237;28;21010;-70
2021/12/20 10:41:36;;;;;;;1.97;1.80;;;;;;;0.34;100.00;97169.50;5090329;28;20435;-70
2021/12/20 10:44:17;;;;;;;8.00;2.30;;;;;;;0.36;100.00;97177.84;5090175;28;20459;-70
2021/12/20 10:46:53;;;;;;;2.70;1.73;;;;;;;0.32;100.00;97181.97;5073543;28;20460;-70
2021/12/20 10:49:26;;;;;;;17.30;2.57;;;;;;;0.31;100.00;97182.22;5092670;28;20438;-70
2021/12/20 10:51:54;;;;;;;4.13;2.43;;;;;;;0.39;100.00;97186.97;5073963;28;20439;-70
2021/12/20 10:54:23;;;;;;;3.90;2.47;;;;;;;0.41;100.00;97180.53;5090103;28;20490;-70
2021/12/20 10:56:54;;;;;;;6.47;2.83;;;;;;;0.43;100.00;97181.09;5091324;28;20504;-70
2021/12/20 10:59:35;;;;;;;2.23;2.03;;;;;;;0.40;100.00;97178.97;5073189;28;20447;-71
2021/12/20 11:03:09;;;;;;;6.50;2.70;;;;;;;0.53;100.00;97180.41;5090097;28;20488;-70
2021/12/20 11:05:08;;;;;;;3.37;2.10;;;;;;;0.33;100.00;97165.34;5089836;28;20450;-70
2021/12/20 11:10:20;;;;;;;3.50;2.50;;;;;;;0.52;100.00;97171.03;5089883;28;20485;-70
2021/12/20 11:12:47;;;;;;;5.23;3.17;;;;;;;0.40;100.00;97165.97;5089840;28;20467;-70
2021/12/20 11:15:14;;;;;;;5.13;3.10;;;;;;;0.50;100.00;97160.88;5091348;28;20599;-71
2021/12/20 11:17:45;;;;;;;5.27;3.70;;;;;;;0.41;100.00;97175.34;5095133;28;20537;-70
2021/12/20 11:20:22;;;;;;;5.50;2.13;;;;;;;0.45;100.00;97163.41;5077297;28;20466;-71
2021/12/20 11:22:49;;;;;;;3.70;2.30;;;;;;;0.48;100.00;97177.75;5077192;28;20438;-71
2021/12/20 11:25:16;;;;;;;3.63;2.43;;;;;;;0.55;100.00;97168.75;5077200;28;20440;-70
2021/12/20 11:27:53;;;;;;;4.33;2.93;;;;;;;0.74;100.00;97171.06;5093802;28;20451;-71
2021/12/20 11:30:28;;;;;;;4.87;2.87;;;;;;;0.91;100.00;97153.56;5077059;28;20435;-70
2021/12/20 11:32:55;;;;;;;6.67;2.27;;;;;;;1.01;100.00;97158.88;5095268;28;20419;-71
2021/12/20 11:35:23;;;;;;;5.40;2.07;;;;;;;1.03;100.00;97162.00;5093675;28;20807;-71
2021/12/20 11:37:51;;;;;;;9.80;3.07;;;;;;;0.87;100.00;97165.50;5095139;28;20824;-70
2021/12/20 11:40:20;;;;;;;4.93;2.90;;;;;;;0.64;100.00;97160.50;5093731;28;20442;-71
2021/12/20 11:42:48;;;;;;;6.97;2.73;;;;;;;0.76;100.00;97159.38;5076835;28;20443;-71
2021/12/20 11:45:17;;;;;;;8.80;2.70;;;;;;;0.81;100.00;97161.25;5093554;28;20457;-71
2021/12/20 11:48:13;;;;;;;2.07;1.97;;;;;;;0.73;100.00;97156.47;5076750;28;20455;-70
2021/12/20 11:50:43;;;;;;;4.37;2.50;;;;;;;0.78;100.00;97159.13;5094836;28;20920;-71
2021/12/20 11:53:14;;;;;;;6.57;2.87;;;;;;;0.80;100.00;97154.47;5094826;28;20408;-71
2021/12/20 11:55:46;;;;;;;7.33;2.60;;;;;;;0.64;100.00;97134.50;5093496;28;20496;-70